sensor_id;sensor_type;location;lat;lon;timestamp;pressure;altitude;pressure_sealevel;temperature;humidity
23677;BME280;31493;49.058;12.190;2023-05-31T00:00:07;96488.25;;;12.54;50.82
23677;BME280;31493;49.058;12.190;2023-05-31T00:02:34;96483.38;;;12.50;50.86
23677;BME280;31493;49.058;12.190;2023-05-31T00:05:01;96477.34;;;12.62;51.08
23677;BME280;31493;49.058;12.190;2023-05-31T00:07:28;96476.53;;;12.49;50.97
23677;BME280;31493;49.058;12.190;2023-05-31T00:09:55;96468.34;;;12.42;51.02
23677;BME280;31493;49.058;12.190;2023-05-31T00:12:23;96477.66;;;12.45;51.03
23677;BME280;31493;49.058;12.190;2023-05-31T00:14:50;96478.72;;;12.42;51.23
23677;BME280;31493;49.058;12.190;2023-05-31T00:17:18;96479.44;;;12.31;51.37
23677;BME280;31493;49.058;12.190;2023-05-31T00:19:45;96470.94;;;12.29;51.41
23677;BME280;31493;49.058;12.190;2023-05-31T00:22:12;96476.56;;;12.36;51.49
23677;BME280;31493;49.058;12.190;2023-05-31T00:24:40;96484.75;;;12.43;51.18
23677;BME280;31493;49.058;12.190;2023-05-31T00:27:07;96489.94;;;12.30;51.42
23677;BME280;31493;49.058;12.190;2023-05-31T00:29:36;96489.53;;;12.23;52.01
23677;BME280;31493;49.058;12.190;2023-05-31T00:32:03;96484.03;;;12.28;52.14
23677;BME280;31493;49.058;12.190;2023-05-31T00:34:30;96475.63;;;12.24;51.57
23677;BME280;31493;49.058;12.190;2023-05-31T00:36:57;96487.13;;;12.20;51.84
23677;BME280;31493;49.058;12.190;2023-05-31T00:39:24;96478.75;;;12.17;52.24
23677;BME280;31493;49.058;12.190;2023-05-31T00:41:51;96481.81;;;12.09;52.48
23677;BME280;31493;49.058;12.190;2023-05-31T00:44:18;96479.88;;;12.13;52.40
23677;BME280;31493;49.058;12.190;2023-05-31T00:46:47;96479.47;;;12.06;52.88
23677;BME280;31493;49.058;12.190;2023-05-31T00:49:14;96486.53;;;12.04;52.60
23677;BME280;31493;49.058;12.190;2023-05-31T00:51:42;96486.09;;;11.97;53.42
23677;BME280;31493;49.058;12.190;2023-05-31T00:54:09;96477.56;;;11.95;53.32
23677;BME280;31493;49.058;12.190;2023-05-31T00:56:36;96486.81;;;11.99;53.44
23677;BME280;31493;49.058;12.190;2023-05-31T00:59:04;96486.59;;;11.90;53.86
23677;BME280;31493;49.058;12.190;2023-05-31T01:01:31;96483.00;;;12.05;53.42
23677;BME280;31493;49.058;12.190;2023-05-31T01:04:00;96478.31;;;12.10;53.75
23677;BME280;31493;49.058;12.190;2023-05-31T01:06:28;96482.56;;;11.98;53.40
23677;BME280;31493;49.058;12.190;2023-05-31T01:08:59;96475.09;;;12.06;53.17
23677;BME280;31493;49.058;12.190;2023-05-31T01:11:36;96483.41;;;12.12;53.11
23677;BME280;31493;49.058;12.190;2023-05-31T01:14:13;96477.38;;;12.11;53.41
23677;BME280;31493;49.058;12.190;2023-05-31T01:16:47;96478.63;;;12.05;53.40
23677;BME280;31493;49.058;12.190;2023-05-31T01:19:28;96482.06;;;12.06;52.93
23677;BME280;31493;49.058;12.190;2023-05-31T01:22:04;96480.59;;;12.02;53.18
23677;BME280;31493;49.058;12.190;2023-05-31T01:24:45;96470.63;;;12.08;53.37
23677;BME280;31493;49.058;12.190;2023-05-31T01:27:20;96469.78;;;12.21;53.14
23677;BME280;31493;49.058;12.190;2023-05-31T01:29:49;96485.25;;;11.97;53.45
23677;BME280;31493;49.058;12.190;2023-05-31T01:32:18;96478.09;;;12.00;53.86
23677;BME280;31493;49.058;12.190;2023-05-31T01:34:47;96472.38;;;12.21;52.68
23677;BME280;31493;49.058;12.190;2023-05-31T01:37:14;96475.72;;;11.97;53.89
23677;BME280;31493;49.058;12.190;2023-05-31T01:39:42;96477.38;;;11.86;54.41
23677;BME280;31493;49.058;12.190;2023-05-31T01:42:10;96482.00;;;11.80;54.71
23677;BME280;31493;49.058;12.190;2023-05-31T01:44:40;96486.91;;;11.85;54.61
23677;BME280;31493;49.058;12.190;2023-05-31T01:47:08;96482.09;;;11.79;55.42
23677;BME280;31493;49.058;12.190;2023-05-31T01:49:35;96478.75;;;11.77;54.79
23677;BME280;31493;49.058;12.190;2023-05-31T01:52:06;96476.38;;;11.74;55.58
23677;BME280;31493;49.058;12.190;2023-05-31T01:54:33;96474.81;;;11.71;55.93
23677;BME280;31493;49.058;12.190;2023-05-31T01:57:02;96475.09;;;11.54;56.21
23677;BME280;31493;49.058;12.190;2023-05-31T01:59:29;96483.75;;;11.67;55.90
23677;BME280;31493;49.058;12.190;2023-05-31T02:01:58;96473.25;;;11.69;55.85
23677;BME280;31493;49.058;12.190;2023-05-31T02:04:25;96484.44;;;11.56;56.08
23677;BME280;31493;49.058;12.190;2023-05-31T02:06:52;96473.41;;;11.53;56.31
23677;BME280;31493;49.058;12.190;2023-05-31T02:09:20;96486.09;;;11.57;56.91
23677;BME280;31493;49.058;12.190;2023-05-31T02:11:47;96484.03;;;11.63;56.56
23677;BME280;31493;49.058;12.190;2023-05-31T02:14:15;96490.53;;;11.43;57.46
23677;BME280;31493;49.058;12.190;2023-05-31T02:16:42;96492.03;;;11.33;57.50
23677;BME280;31493;49.058;12.190;2023-05-31T02:19:10;96491.34;;;11.43;57.36
23677;BME280;31493;49.058;12.190;2023-05-31T02:21:39;96480.34;;;11.40;57.40
23677;BME280;31493;49.058;12.190;2023-05-31T02:24:06;96485.53;;;11.40;57.40
23677;BME280;31493;49.058;12.190;2023-05-31T02:26:33;96480.63;;;11.35;58.02
23677;BME280;31493;49.058;12.190;2023-05-31T02:29:02;96483.94;;;11.24;58.33
23677;BME280;31493;49.058;12.190;2023-05-31T02:31:29;96493.16;;;11.28;58.60
23677;BME280;31493;49.058;12.190;2023-05-31T02:33:56;96490.13;;;11.22;58.87
23677;BME280;31493;49.058;12.190;2023-05-31T02:36:24;96487.75;;;11.19;59.34
23677;BME280;31493;49.058;12.190;2023-05-31T02:38:55;96491.44;;;11.15;59.29
23677;BME280;31493;49.058;12.190;2023-05-31T02:41:22;96490.66;;;11.27;59.48
23677;BME280;31493;49.058;12.190;2023-05-31T02:43:51;96491.13;;;11.46;60.35
23677;BME280;31493;49.058;12.190;2023-05-31T02:46:18;96492.66;;;11.09;62.26
23677;BME280;31493;49.058;12.190;2023-05-31T02:48:45;96507.28;;;11.10;62.17
23677;BME280;31493;49.058;12.190;2023-05-31T02:51:12;96508.03;;;11.12;61.95
23677;BME280;31493;49.058;12.190;2023-05-31T02:53:40;96511.06;;;10.63;65.54
23677;BME280;31493;49.058;12.190;2023-05-31T02:56:07;96504.03;;;10.65;65.21
23677;BME280;31493;49.058;12.190;2023-05-31T02:58:35;96489.63;;;11.02;63.64
23677;BME280;31493;49.058;12.190;2023-05-31T03:01:02;96502.56;;;11.02;63.20
23677;BME280;31493;49.058;12.190;2023-05-31T03:03:29;96504.00;;;11.21;62.93
23677;BME280;31493;49.058;12.190;2023-05-31T03:05:56;96509.91;;;11.23;61.63
23677;BME280;31493;49.058;12.190;2023-05-31T03:08:23;96501.19;;;11.11;64.00
23677;BME280;31493;49.058;12.190;2023-05-31T03:10:51;96499.44;;;10.97;63.87
23677;BME280;31493;49.058;12.190;2023-05-31T03:13:18;96503.38;;;10.76;64.52
23677;BME280;31493;49.058;12.190;2023-05-31T03:15:45;96495.28;;;10.95;62.74
23677;BME280;31493;49.058;12.190;2023-05-31T03:18:12;96498.31;;;11.01;62.21
23677;BME280;31493;49.058;12.190;2023-05-31T03:20:39;96512.00;;;11.18;61.49
23677;BME280;31493;49.058;12.190;2023-05-31T03:23:06;96502.47;;;11.18;61.09
23677;BME280;31493;49.058;12.190;2023-05-31T03:25:34;96507.09;;;11.13;61.66
23677;BME280;31493;49.058;12.190;2023-05-31T03:28:02;96507.09;;;11.13;63.29
23677;BME280;31493;49.058;12.190;2023-05-31T03:30:30;96500.69;;;11.19;63.39
23677;BME280;31493;49.058;12.190;2023-05-31T03:32:57;96502.59;;;11.29;63.35
23677;BME280;31493;49.058;12.190;2023-05-31T03:35:24;96499.59;;;11.09;62.52
23677;BME280;31493;49.058;12.190;2023-05-31T03:37:52;96494.75;;;10.90;64.63
23677;BME280;31493;49.058;12.190;2023-05-31T03:40:19;96500.09;;;11.01;62.49
23677;BME280;31493;49.058;12.190;2023-05-31T03:42:46;96505.28;;;11.28;62.65
23677;BME280;31493;49.058;12.190;2023-05-31T03:45:15;96504.84;;;11.21;61.39
23677;BME280;31493;49.058;12.190;2023-05-31T03:47:42;96506.03;;;11.30;62.72
23677;BME280;31493;49.058;12.190;2023-05-31T03:50:09;96509.13;;;11.35;63.54
23677;BME280;31493;49.058;12.190;2023-05-31T03:52:37;96506.16;;;11.41;62.12
23677;BME280;31493;49.058;12.190;2023-05-31T03:55:05;96514.97;;;11.39;61.85
23677;BME280;31493;49.058;12.190;2023-05-31T03:57:32;96509.69;;;11.13;62.32
23677;BME280;31493;49.058;12.190;2023-05-31T03:59:59;96516.34;;;11.17;62.04
23677;BME280;31493;49.058;12.190;2023-05-31T04:02:28;96508.88;;;10.98;62.94
23677;BME280;31493;49.058;12.190;2023-05-31T04:04:55;96506.44;;;11.10;62.93
23677;BME280;31493;49.058;12.190;2023-05-31T04:07:22;96512.44;;;11.10;62.61
23677;BME280;31493;49.058;12.190;2023-05-31T04:09:49;96514.31;;;11.08;62.64
23677;BME280;31493;49.058;12.190;2023-05-31T04:12:16;96499.66;;;11.21;62.67
23677;BME280;31493;49.058;12.190;2023-05-31T04:14:43;96503.00;;;11.23;62.14
23677;BME280;31493;49.058;12.190;2023-05-31T04:17:10;96499.63;;;11.36;62.34
23677;BME280;31493;49.058;12.190;2023-05-31T04:19:38;96501.91;;;11.13;62.99
23677;BME280;31493;49.058;12.190;2023-05-31T04:22:05;96512.00;;;11.18;63.04
23677;BME280;31493;49.058;12.190;2023-05-31T04:24:33;96507.78;;;11.29;63.03
23677;BME280;31493;49.058;12.190;2023-05-31T04:27:00;96518.78;;;11.33;62.90
23677;BME280;31493;49.058;12.190;2023-05-31T04:29:29;96509.59;;;11.42;63.23
23677;BME280;31493;49.058;12.190;2023-05-31T04:31:56;96514.72;;;11.56;62.39
23677;BME280;31493;49.058;12.190;2023-05-31T04:34:24;96509.00;;;11.51;62.99
23677;BME280;31493;49.058;12.190;2023-05-31T04:36:53;96518.78;;;11.60;62.71
23677;BME280;31493;49.058;12.190;2023-05-31T04:39:21;96518.19;;;11.69;62.17
23677;BME280;31493;49.058;12.190;2023-05-31T04:41:49;96516.81;;;11.64;62.29
23677;BME280;31493;49.058;12.190;2023-05-31T04:44:16;96520.97;;;11.66;62.20
23677;BME280;31493;49.058;12.190;2023-05-31T04:46:44;96531.63;;;11.89;62.32
23677;BME280;31493;49.058;12.190;2023-05-31T04:49:12;96514.94;;;12.56;61.93
23677;BME280;31493;49.058;12.190;2023-05-31T04:51:39;96513.69;;;13.11;61.18
23677;BME280;31493;49.058;12.190;2023-05-31T04:54:07;96527.09;;;12.56;62.49
23677;BME280;31493;49.058;12.190;2023-05-31T04:56:34;96532.13;;;12.46;62.20
23677;BME280;31493;49.058;12.190;2023-05-31T04:59:02;96543.34;;;12.47;59.09
23677;BME280;31493;49.058;12.190;2023-05-31T05:01:29;96541.97;;;12.54;59.80
23677;BME280;31493;49.058;12.190;2023-05-31T05:03:57;96528.06;;;12.55;59.80
23677;BME280;31493;49.058;12.190;2023-05-31T05:06:24;96526.78;;;12.73;59.44
23677;BME280;31493;49.058;12.190;2023-05-31T05:08:52;96532.63;;;12.77;59.86
23677;BME280;31493;49.058;12.190;2023-05-31T05:11:20;96538.38;;;12.93;59.21
23677;BME280;31493;49.058;12.190;2023-05-31T05:13:47;96531.66;;;12.78;59.02
23677;BME280;31493;49.058;12.190;2023-05-31T05:16:14;96541.44;;;12.74;59.67
23677;BME280;31493;49.058;12.190;2023-05-31T05:18:41;96539.97;;;12.83;59.48
23677;BME280;31493;49.058;12.190;2023-05-31T05:21:08;96546.94;;;12.95;59.78
23677;BME280;31493;49.058;12.190;2023-05-31T05:23:35;96540.47;;;12.88;59.17
23677;BME280;31493;49.058;12.190;2023-05-31T05:26:03;96529.72;;;13.05;59.10
23677;BME280;31493;49.058;12.190;2023-05-31T05:28:32;96547.28;;;13.14;59.31
23677;BME280;31493;49.058;12.190;2023-05-31T05:30:59;96541.03;;;13.30;59.40
23677;BME280;31493;49.058;12.190;2023-05-31T05:33:35;96540.75;;;13.22;59.82
23677;BME280;31493;49.058;12.190;2023-05-31T05:36:02;96534.06;;;13.17;60.50
23677;BME280;31493;49.058;12.190;2023-05-31T05:38:29;96552.38;;;13.16;59.89
23677;BME280;31493;49.058;12.190;2023-05-31T05:40:56;96545.59;;;13.39;60.01
23677;BME280;31493;49.058;12.190;2023-05-31T05:43:23;96546.19;;;13.42;60.18
23677;BME280;31493;49.058;12.190;2023-05-31T05:45:51;96556.75;;;13.76;59.03
23677;BME280;31493;49.058;12.190;2023-05-31T05:48:18;96557.84;;;13.85;59.04
23677;BME280;31493;49.058;12.190;2023-05-31T05:50:46;96544.72;;;13.86;59.63
23677;BME280;31493;49.058;12.190;2023-05-31T05:53:13;96541.50;;;14.07;57.28
23677;BME280;31493;49.058;12.190;2023-05-31T05:55:47;96549.72;;;14.36;57.13
23677;BME280;31493;49.058;12.190;2023-05-31T05:58:15;96548.31;;;14.32;56.14
23677;BME280;31493;49.058;12.190;2023-05-31T06:00:42;96553.59;;;14.19;56.20
23677;BME280;31493;49.058;12.190;2023-05-31T06:03:11;96552.63;;;14.66;54.75
23677;BME280;31493;49.058;12.190;2023-05-31T06:05:39;96549.19;;;14.77;52.14
23677;BME280;31493;49.058;12.190;2023-05-31T06:08:06;96554.28;;;14.78;52.23
23677;BME280;31493;49.058;12.190;2023-05-31T06:10:33;96560.09;;;14.60;51.50
23677;BME280;31493;49.058;12.190;2023-05-31T06:13:00;96563.19;;;14.87;52.22
23677;BME280;31493;49.058;12.190;2023-05-31T06:15:27;96559.03;;;15.18;52.84
23677;BME280;31493;49.058;12.190;2023-05-31T06:17:54;96556.56;;;14.94;51.03
23677;BME280;31493;49.058;12.190;2023-05-31T06:20:22;96564.81;;;15.33;51.48
23677;BME280;31493;49.058;12.190;2023-05-31T06:22:49;96554.28;;;15.35;50.55
23677;BME280;31493;49.058;12.190;2023-05-31T06:25:17;96560.41;;;15.45;50.96
23677;BME280;31493;49.058;12.190;2023-05-31T06:27:45;96559.78;;;15.64;48.88
23677;BME280;31493;49.058;12.190;2023-05-31T06:30:13;96556.59;;;15.49;47.97
23677;BME280;31493;49.058;12.190;2023-05-31T06:32:40;96558.94;;;15.52;47.38
23677;BME280;31493;49.058;12.190;2023-05-31T06:35:07;96547.28;;;15.78;47.13
23677;BME280;31493;49.058;12.190;2023-05-31T06:37:36;96553.00;;;16.04;46.18
23677;BME280;31493;49.058;12.190;2023-05-31T06:40:03;96550.75;;;16.00;44.09
23677;BME280;31493;49.058;12.190;2023-05-31T06:42:32;96555.31;;;15.87;44.61
23677;BME280;31493;49.058;12.190;2023-05-31T06:44:59;96547.59;;;16.17;45.37
23677;BME280;31493;49.058;12.190;2023-05-31T06:47:26;96562.47;;;16.05;42.88
23677;BME280;31493;49.058;12.190;2023-05-31T06:49:53;96558.44;;;16.33;42.80
23677;BME280;31493;49.058;12.190;2023-05-31T06:52:20;96558.41;;;16.54;42.17
23677;BME280;31493;49.058;12.190;2023-05-31T06:54:49;96556.75;;;16.53;41.08
23677;BME280;31493;49.058;12.190;2023-05-31T06:57:16;96548.22;;;16.51;41.69
23677;BME280;31493;49.058;12.190;2023-05-31T06:59:43;96551.75;;;16.41;41.52
23677;BME280;31493;49.058;12.190;2023-05-31T07:02:11;96549.22;;;16.81;42.72
23677;BME280;31493;49.058;12.190;2023-05-31T07:04:38;96549.47;;;17.08;42.07
23677;BME280;31493;49.058;12.190;2023-05-31T07:07:05;96537.69;;;16.83;43.47
23677;BME280;31493;49.058;12.190;2023-05-31T07:09:32;96539.59;;;16.81;42.86
23677;BME280;31493;49.058;12.190;2023-05-31T07:12:00;96551.13;;;16.79;42.57
23677;BME280;31493;49.058;12.190;2023-05-31T07:14:28;96550.47;;;16.86;40.80
23677;BME280;31493;49.058;12.190;2023-05-31T07:16:55;96538.34;;;17.16;41.47
23677;BME280;31493;49.058;12.190;2023-05-31T07:19:22;96540.03;;;17.36;40.41
23677;BME280;31493;49.058;12.190;2023-05-31T07:21:49;96546.28;;;17.05;41.56
23677;BME280;31493;49.058;12.190;2023-05-31T07:24:16;96533.59;;;17.40;42.12
23677;BME280;31493;49.058;12.190;2023-05-31T07:26:43;96535.66;;;17.46;41.66
23677;BME280;31493;49.058;12.190;2023-05-31T07:29:11;96533.72;;;16.89;39.59
23677;BME280;31493;49.058;12.190;2023-05-31T07:31:38;96533.59;;;17.00;39.41
23677;BME280;31493;49.058;12.190;2023-05-31T07:34:06;96544.06;;;17.00;39.68
23677;BME280;31493;49.058;12.190;2023-05-31T07:36:35;96536.13;;;17.11;40.28
23677;BME280;31493;49.058;12.190;2023-05-31T07:39:02;96538.06;;;17.79;40.58
23677;BME280;31493;49.058;12.190;2023-05-31T07:41:31;96540.84;;;17.87;40.65
23677;BME280;31493;49.058;12.190;2023-05-31T07:43:58;96529.75;;;17.64;39.83
23677;BME280;31493;49.058;12.190;2023-05-31T07:46:27;96531.75;;;17.81;40.39
23677;BME280;31493;49.058;12.190;2023-05-31T07:48:54;96538.47;;;18.03;40.30
23677;BME280;31493;49.058;12.190;2023-05-31T07:51:21;96524.00;;;18.18;40.18
23677;BME280;31493;49.058;12.190;2023-05-31T07:53:48;96519.72;;;18.08;40.17
23677;BME280;31493;49.058;12.190;2023-05-31T07:56:15;96516.00;;;18.10;40.04
23677;BME280;31493;49.058;12.190;2023-05-31T07:58:42;96512.84;;;17.78;40.37
23677;BME280;31493;49.058;12.190;2023-05-31T08:01:09;96516.66;;;18.32;40.34
23677;BME280;31493;49.058;12.190;2023-05-31T08:03:38;96511.84;;;18.27;40.08
23677;BME280;31493;49.058;12.190;2023-05-31T08:06:05;96509.38;;;18.25;40.00
23677;BME280;31493;49.058;12.190;2023-05-31T08:08:32;96509.00;;;18.11;40.42
23677;BME280;31493;49.058;12.190;2023-05-31T08:10:59;96505.09;;;18.15;39.95
23677;BME280;31493;49.058;12.190;2023-05-31T08:13:27;96511.16;;;18.25;40.16
23677;BME280;31493;49.058;12.190;2023-05-31T08:15:54;96505.66;;;18.65;40.68
23677;BME280;31493;49.058;12.190;2023-05-31T08:18:21;96507.44;;;18.27;39.50
23677;BME280;31493;49.058;12.190;2023-05-31T08:20:50;96510.44;;;18.33;39.58
23677;BME280;31493;49.058;12.190;2023-05-31T08:23:17;96505.16;;;18.52;39.95
23677;BME280;31493;49.058;12.190;2023-05-31T08:25:44;96509.78;;;18.31;40.46
23677;BME280;31493;49.058;12.190;2023-05-31T08:28:12;96508.09;;;18.39;40.07
23677;BME280;31493;49.058;12.190;2023-05-31T08:30:39;96502.03;;;18.86;39.82
23677;BME280;31493;49.058;12.190;2023-05-31T08:33:06;96508.91;;;18.40;38.45
23677;BME280;31493;49.058;12.190;2023-05-31T08:35:33;96508.44;;;19.01;38.10
23677;BME280;31493;49.058;12.190;2023-05-31T08:38:01;96520.53;;;18.84;40.33
23677;BME280;31493;49.058;12.190;2023-05-31T08:40:28;96511.38;;;19.25;39.18
23677;BME280;31493;49.058;12.190;2023-05-31T08:43:00;96498.19;;;19.08;39.85
23677;BME280;31493;49.058;12.190;2023-05-31T08:45:27;96496.09;;;18.84;39.58
23677;BME280;31493;49.058;12.190;2023-05-31T08:48:00;96504.19;;;19.27;39.61
23677;BME280;31493;49.058;12.190;2023-05-31T08:50:30;96505.66;;;18.75;38.94
23677;BME280;31493;49.058;12.190;2023-05-31T08:52:58;96506.41;;;18.67;39.60
23677;BME280;31493;49.058;12.190;2023-05-31T08:55:28;96503.59;;;19.33;40.54
23677;BME280;31493;49.058;12.190;2023-05-31T08:57:56;96493.69;;;19.00;39.10
23677;BME280;31493;49.058;12.190;2023-05-31T09:00:24;96498.22;;;19.53;40.05
23677;BME280;31493;49.058;12.190;2023-05-31T09:02:52;96494.19;;;19.31;38.96
23677;BME280;31493;49.058;12.190;2023-05-31T09:05:20;96495.25;;;18.93;39.82
23677;BME280;31493;49.058;12.190;2023-05-31T09:07:47;96493.53;;;19.01;38.77
23677;BME280;31493;49.058;12.190;2023-05-31T09:10:15;96482.34;;;19.09;38.87
23677;BME280;31493;49.058;12.190;2023-05-31T09:12:44;96492.97;;;19.89;39.20
23677;BME280;31493;49.058;12.190;2023-05-31T09:15:13;96490.13;;;19.64;37.15
23677;BME280;31493;49.058;12.190;2023-05-31T09:17:44;96490.72;;;19.58;38.40
23677;BME280;31493;49.058;12.190;2023-05-31T09:20:12;96492.03;;;19.90;37.87
23677;BME280;31493;49.058;12.190;2023-05-31T09:22:40;96503.03;;;20.37;39.11
23677;BME280;31493;49.058;12.190;2023-05-31T09:25:07;96497.72;;;19.67;37.68
23677;BME280;31493;49.058;12.190;2023-05-31T09:27:36;96495.84;;;19.95;38.03
23677;BME280;31493;49.058;12.190;2023-05-31T09:30:07;96500.63;;;20.00;37.93
23677;BME280;31493;49.058;12.190;2023-05-31T09:32:35;96485.34;;;19.77;37.26
23677;BME280;31493;49.058;12.190;2023-05-31T09:35:12;96491.88;;;19.73;38.18
23677;BME280;31493;49.058;12.190;2023-05-31T09:37:43;96491.06;;;20.17;38.89
23677;BME280;31493;49.058;12.190;2023-05-31T09:40:13;96485.34;;;19.95;37.59
23677;BME280;31493;49.058;12.190;2023-05-31T09:42:47;96482.31;;;20.34;38.86
23677;BME280;31493;49.058;12.190;2023-05-31T09:45:16;96472.63;;;20.34;37.78
23677;BME280;31493;49.058;12.190;2023-05-31T09:47:43;96466.34;;;20.27;37.95
23677;BME280;31493;49.058;12.190;2023-05-31T09:50:11;96484.13;;;20.33;37.95
23677;BME280;31493;49.058;12.190;2023-05-31T09:52:38;96464.13;;;20.66;36.41
23677;BME280;31493;49.058;12.190;2023-05-31T09:55:07;96469.31;;;20.92;37.53
23677;BME280;31493;49.058;12.190;2023-05-31T09:57:36;96470.91;;;19.64;36.68
23677;BME280;31493;49.058;12.190;2023-05-31T10:00:07;96463.72;;;19.83;36.56
23677;BME280;31493;49.058;12.190;2023-05-31T10:02:44;96455.41;;;20.40;38.14
23677;BME280;31493;49.058;12.190;2023-05-31T10:05:12;96451.72;;;20.93;37.89
23677;BME280;31493;49.058;12.190;2023-05-31T10:07:40;96459.25;;;20.20;36.75
23677;BME280;31493;49.058;12.190;2023-05-31T10:10:08;96463.03;;;20.25;36.99
23677;BME280;31493;49.058;12.190;2023-05-31T10:12:39;96454.13;;;20.70;36.27
23677;BME280;31493;49.058;12.190;2023-05-31T10:15:11;96459.19;;;20.63;36.72
23677;BME280;31493;49.058;12.190;2023-05-31T10:17:45;96455.94;;;20.00;36.94
23677;BME280;31493;49.058;12.190;2023-05-31T10:20:16;96446.41;;;20.77;37.28
23677;BME280;31493;49.058;12.190;2023-05-31T10:22:44;96451.72;;;20.85;36.64
23677;BME280;31493;49.058;12.190;2023-05-31T10:25:19;96456.84;;;20.60;36.01
23677;BME280;31493;49.058;12.190;2023-05-31T10:27:53;96455.41;;;21.00;37.03
23677;BME280;31493;49.058;12.190;2023-05-31T10:30:27;96450.22;;;20.82;36.27
23677;BME280;31493;49.058;12.190;2023-05-31T10:33:04;96437.44;;;21.38;36.56
23677;BME280;31493;49.058;12.190;2023-05-31T10:35:32;96448.88;;;20.78;36.07
23677;BME280;31493;49.058;12.190;2023-05-31T10:38:00;96445.59;;;20.76;34.72
23677;BME280;31493;49.058;12.190;2023-05-31T10:40:33;96445.97;;;20.81;35.63
23677;BME280;31493;49.058;12.190;2023-05-31T10:43:08;96434.13;;;20.85;34.58
23677;BME280;31493;49.058;12.190;2023-05-31T10:45:38;96436.34;;;21.06;35.58
23677;BME280;31493;49.058;12.190;2023-05-31T10:48:20;96428.81;;;21.28;35.75
23677;BME280;31493;49.058;12.190;2023-05-31T10:50:52;96430.09;;;21.15;35.88
23677;BME280;31493;49.058;12.190;2023-05-31T10:53:19;96421.94;;;21.35;35.54
23677;BME280;31493;49.058;12.190;2023-05-31T10:55:47;96425.72;;;21.32;36.17
23677;BME280;31493;49.058;12.190;2023-05-31T10:58:25;96418.97;;;21.30;35.71
23677;BME280;31493;49.058;12.190;2023-05-31T11:00:53;96417.00;;;21.40;36.18
23677;BME280;31493;49.058;12.190;2023-05-31T11:03:22;96427.88;;;21.37;35.54
23677;BME280;31493;49.058;12.190;2023-05-31T11:05:57;96418.34;;;21.52;35.06
23677;BME280;31493;49.058;12.190;2023-05-31T11:08:25;96422.03;;;21.17;34.69
23677;BME280;31493;49.058;12.190;2023-05-31T11:10:53;96414.75;;;21.61;35.49
23677;BME280;31493;49.058;12.190;2023-05-31T11:13:56;96410.09;;;22.29;37.81
23677;BME280;31493;49.058;12.190;2023-05-31T11:16:23;96406.66;;;22.04;35.09
23677;BME280;31493;49.058;12.190;2023-05-31T11:19:03;96419.44;;;21.25;35.19
23677;BME280;31493;49.058;12.190;2023-05-31T11:21:49;96419.81;;;22.04;35.79
23677;BME280;31493;49.058;12.190;2023-05-31T11:24:27;96423.13;;;21.81;35.03
23677;BME280;31493;49.058;12.190;2023-05-31T11:26:56;96414.91;;;22.17;35.59
23677;BME280;31493;49.058;12.190;2023-05-31T11:29:23;96413.47;;;22.53;35.47
23677;BME280;31493;49.058;12.190;2023-05-31T11:31:59;96410.44;;;22.09;34.63
23677;BME280;31493;49.058;12.190;2023-05-31T11:34:31;96403.50;;;22.08;34.83
23677;BME280;31493;49.058;12.190;2023-05-31T11:37:00;96417.34;;;21.94;35.18
23677;BME280;31493;49.058;12.190;2023-05-31T11:39:28;96410.78;;;21.82;34.66
23677;BME280;31493;49.058;12.190;2023-05-31T11:41:56;96406.28;;;21.25;35.63
23677;BME280;31493;49.058;12.190;2023-05-31T11:44:27;96406.66;;;22.12;35.46
23677;BME280;31493;49.058;12.190;2023-05-31T11:47:04;96393.00;;;21.76;34.80
23677;BME280;31493;49.058;12.190;2023-05-31T11:49:32;96392.31;;;21.65;36.19
23677;BME280;31493;49.058;12.190;2023-05-31T11:52:00;96409.13;;;21.89;35.50
23677;BME280;31493;49.058;12.190;2023-05-31T11:54:27;96408.78;;;21.84;35.18
23677;BME280;31493;49.058;12.190;2023-05-31T11:56:56;96400.25;;;21.73;35.61
23677;BME280;31493;49.058;12.190;2023-05-31T11:59:24;96385.22;;;22.07;34.35
23677;BME280;31493;49.058;12.190;2023-05-31T12:01:56;96404.34;;;21.84;34.62
23677;BME280;31493;49.058;12.190;2023-05-31T12:04:29;96387.19;;;22.29;34.98
23677;BME280;31493;49.058;12.190;2023-05-31T12:06:57;96395.28;;;22.11;34.44
23677;BME280;31493;49.058;12.190;2023-05-31T12:09:25;96390.34;;;21.59;34.75
23677;BME280;31493;49.058;12.190;2023-05-31T12:11:53;96378.47;;;21.96;34.80
23677;BME280;31493;49.058;12.190;2023-05-31T12:14:21;96385.41;;;21.81;35.62
23677;BME280;31493;49.058;12.190;2023-05-31T12:16:48;96383.88;;;22.03;34.47
23677;BME280;31493;49.058;12.190;2023-05-31T12:19:16;96368.25;;;21.85;34.53
23677;BME280;31493;49.058;12.190;2023-05-31T12:21:43;96368.53;;;22.31;34.37
23677;BME280;31493;49.058;12.190;2023-05-31T12:24:13;96360.72;;;22.53;34.27
23677;BME280;31493;49.058;12.190;2023-05-31T12:26:42;96364.00;;;22.95;33.59
23677;BME280;31493;49.058;12.190;2023-05-31T12:29:11;96365.63;;;22.57;33.87
23677;BME280;31493;49.058;12.190;2023-05-31T12:31:39;96372.41;;;22.51;34.51
23677;BME280;31493;49.058;12.190;2023-05-31T12:34:07;96366.09;;;22.68;33.72
23677;BME280;31493;49.058;12.190;2023-05-31T12:36:38;96365.63;;;22.17;33.59
23677;BME280;31493;49.058;12.190;2023-05-31T12:39:09;96362.63;;;22.20;33.66
23677;BME280;31493;49.058;12.190;2023-05-31T12:41:41;96354.34;;;23.10;35.45
23677;BME280;31493;49.058;12.190;2023-05-31T12:44:08;96359.22;;;23.21;32.86
23677;BME280;31493;49.058;12.190;2023-05-31T12:46:39;96353.78;;;22.92;33.98
23677;BME280;31493;49.058;12.190;2023-05-31T12:49:13;96342.91;;;23.18;33.80
23677;BME280;31493;49.058;12.190;2023-05-31T12:51:41;96364.00;;;22.95;32.96
23677;BME280;31493;49.058;12.190;2023-05-31T12:54:10;96354.34;;;22.32;33.90
23677;BME280;31493;49.058;12.190;2023-05-31T12:56:39;96352.00;;;22.45;33.35